sensor_id;sensor_type;location;lat;lon;timestamp;P1;durP1;ratioP1;P2;durP2;ratioP2
1765;SDS011;880;52.452;8.656;2022-07-10T00:01:54;4.73;;;1.40;;
1765;SDS011;880;52.452;8.656;2022-07-10T00:04:21;5.03;;;1.30;;
1765;SDS011;880;52.452;8.656;2022-07-10T00:06:48;5.80;;;1.37;;
1765;SDS011;880;52.452;8.656;2022-07-10T00:09:16;2.80;;;1.70;;
1765;SDS011;880;52.452;8.656;2022-07-10T00:11:43;4.20;;;1.20;;
1765;SDS011;880;52.452;8.656;2022-07-10T00:14:10;3.23;;;1.50;;
1765;SDS011;880;52.452;8.656;2022-07-10T00:16:37;3.93;;;1.50;;
1765;SDS011;880;52.452;8.656;2022-07-10T00:19:04;5.83;;;1.97;;
1765;SDS011;880;52.452;8.656;2022-07-10T00:21:31;5.07;;;1.27;;
1765;SDS011;880;52.452;8.656;2022-07-10T00:23:58;5.60;;;1.50;;
1765;SDS011;880;52.452;8.656;2022-07-10T00:26:25;2.03;;;1.23;;
1765;SDS011;880;52.452;8.656;2022-07-10T00:28:52;2.50;;;1.30;;
1765;SDS011;880;52.452;8.656;2022-07-10T00:31:20;2.80;;;1.67;;
1765;SDS011;880;52.452;8.656;2022-07-10T00:33:47;4.77;;;1.70;;
1765;SDS011;880;52.452;8.656;2022-07-10T00:36:14;6.13;;;1.77;;
1765;SDS011;880;52.452;8.656;2022-07-10T00:38:42;3.90;;;1.27;;
1765;SDS011;880;52.452;8.656;2022-07-10T00:41:09;3.80;;;1.60;;
1765;SDS011;880;52.452;8.656;2022-07-10T00:46:38;2.37;;;1.87;;
1765;SDS011;880;52.452;8.656;2022-07-10T00:49:06;3.53;;;1.50;;
1765;SDS011;880;52.452;8.656;2022-07-10T00:51:34;2.80;;;1.70;;
1765;SDS011;880;52.452;8.656;2022-07-10T00:54:01;4.40;;;1.80;;
1765;SDS011;880;52.452;8.656;2022-07-10T00:56:28;5.93;;;1.50;;
1765;SDS011;880;52.452;8.656;2022-07-10T00:58:55;3.27;;;1.43;;
1765;SDS011;880;52.452;8.656;2022-07-10T01:01:23;5.10;;;1.40;;
1765;SDS011;880;52.452;8.656;2022-07-10T01:03:50;5.63;;;1.60;;
1765;SDS011;880;52.452;8.656;2022-07-10T01:06:18;5.37;;;1.77;;
1765;SDS011;880;52.452;8.656;2022-07-10T01:08:45;6.17;;;1.60;;
1765;SDS011;880;52.452;8.656;2022-07-10T01:11:13;4.17;;;1.87;;
1765;SDS011;880;52.452;8.656;2022-07-10T01:13:42;11.13;;;1.80;;
1765;SDS011;880;52.452;8.656;2022-07-10T01:16:11;4.40;;;1.60;;
1765;SDS011;880;52.452;8.656;2022-07-10T01:18:39;4.13;;;1.53;;
1765;SDS011;880;52.452;8.656;2022-07-10T01:23:59;5.20;;;2.33;;
1765;SDS011;880;52.452;8.656;2022-07-10T01:26:28;6.50;;;1.97;;
1765;SDS011;880;52.452;8.656;2022-07-10T01:28:55;3.50;;;1.60;;
1765;SDS011;880;52.452;8.656;2022-07-10T01:31:26;3.90;;;1.60;;
1765;SDS011;880;52.452;8.656;2022-07-10T01:33:54;2.80;;;1.27;;
1765;SDS011;880;52.452;8.656;2022-07-10T01:36:22;5.33;;;2.40;;
1765;SDS011;880;52.452;8.656;2022-07-10T01:38:53;5.77;;;1.90;;
1765;SDS011;880;52.452;8.656;2022-07-10T01:41:21;4.00;;;1.93;;
1765;SDS011;880;52.452;8.656;2022-07-10T01:43:49;4.00;;;1.70;;
1765;SDS011;880;52.452;8.656;2022-07-10T01:46:17;4.30;;;1.60;;
1765;SDS011;880;52.452;8.656;2022-07-10T01:48:44;5.23;;;1.73;;
1765;SDS011;880;52.452;8.656;2022-07-10T01:51:12;5.73;;;1.93;;
1765;SDS011;880;52.452;8.656;2022-07-10T01:53:40;7.07;;;2.27;;
1765;SDS011;880;52.452;8.656;2022-07-10T01:56:09;4.03;;;1.57;;
1765;SDS011;880;52.452;8.656;2022-07-10T01:58:38;5.23;;;1.67;;
1765;SDS011;880;52.452;8.656;2022-07-10T02:01:07;4.53;;;2.10;;
1765;SDS011;880;52.452;8.656;2022-07-10T02:03:35;8.40;;;1.80;;
1765;SDS011;880;52.452;8.656;2022-07-10T02:06:20;7.20;;;1.80;;
1765;SDS011;880;52.452;8.656;2022-07-10T02:08:47;10.73;;;1.67;;
1765;SDS011;880;52.452;8.656;2022-07-10T02:11:14;4.90;;;2.07;;
1765;SDS011;880;52.452;8.656;2022-07-10T02:13:41;5.73;;;2.00;;
1765;SDS011;880;52.452;8.656;2022-07-10T02:16:08;5.10;;;1.93;;
1765;SDS011;880;52.452;8.656;2022-07-10T02:18:37;4.80;;;1.83;;
1765;SDS011;880;52.452;8.656;2022-07-10T02:21:06;9.90;;;1.97;;
1765;SDS011;880;52.452;8.656;2022-07-10T02:23:33;10.77;;;2.10;;
1765;SDS011;880;52.452;8.656;2022-07-10T02:26:01;7.33;;;2.00;;
1765;SDS011;880;52.452;8.656;2022-07-10T02:28:29;4.13;;;1.70;;
1765;SDS011;880;52.452;8.656;2022-07-10T02:30:56;4.97;;;1.90;;
1765;SDS011;880;52.452;8.656;2022-07-10T02:33:24;5.50;;;2.43;;
1765;SDS011;880;52.452;8.656;2022-07-10T02:35:51;5.20;;;2.10;;
1765;SDS011;880;52.452;8.656;2022-07-10T02:38:19;6.67;;;2.20;;
1765;SDS011;880;52.452;8.656;2022-07-10T02:40:46;6.87;;;2.13;;
1765;SDS011;880;52.452;8.656;2022-07-10T02:43:14;3.30;;;1.73;;
1765;SDS011;880;52.452;8.656;2022-07-10T02:45:41;6.13;;;1.83;;
1765;SDS011;880;52.452;8.656;2022-07-10T02:48:14;4.47;;;1.93;;
1765;SDS011;880;52.452;8.656;2022-07-10T02:50:42;4.80;;;1.70;;
1765;SDS011;880;52.452;8.656;2022-07-10T02:53:09;5.03;;;2.20;;
1765;SDS011;880;52.452;8.656;2022-07-10T02:55:37;3.30;;;1.63;;
1765;SDS011;880;52.452;8.656;2022-07-10T02:58:04;6.60;;;2.40;;
1765;SDS011;880;52.452;8.656;2022-07-10T03:00:31;6.10;;;1.50;;
1765;SDS011;880;52.452;8.656;2022-07-10T03:02:58;6.57;;;2.03;;
1765;SDS011;880;52.452;8.656;2022-07-10T03:05:26;5.80;;;2.13;;
1765;SDS011;880;52.452;8.656;2022-07-10T03:07:53;4.40;;;1.70;;
1765;SDS011;880;52.452;8.656;2022-07-10T03:10:20;3.97;;;2.03;;
1765;SDS011;880;52.452;8.656;2022-07-10T03:12:47;9.57;;;2.00;;
1765;SDS011;880;52.452;8.656;2022-07-10T03:15:14;4.37;;;2.03;;
1765;SDS011;880;52.452;8.656;2022-07-10T03:17:41;4.57;;;2.60;;
1765;SDS011;880;52.452;8.656;2022-07-10T03:20:08;4.37;;;1.70;;
1765;SDS011;880;52.452;8.656;2022-07-10T03:22:36;5.97;;;2.13;;
1765;SDS011;880;52.452;8.656;2022-07-10T03:25:04;5.97;;;2.13;;
1765;SDS011;880;52.452;8.656;2022-07-10T03:27:31;6.00;;;2.53;;
1765;SDS011;880;52.452;8.656;2022-07-10T03:29:59;7.57;;;2.80;;
1765;SDS011;880;52.452;8.656;2022-07-10T03:32:26;4.67;;;2.20;;
1765;SDS011;880;52.452;8.656;2022-07-10T03:34:53;10.03;;;2.53;;
1765;SDS011;880;52.452;8.656;2022-07-10T03:37:20;8.33;;;2.50;;
1765;SDS011;880;52.452;8.656;2022-07-10T03:39:47;2.80;;;1.80;;
1765;SDS011;880;52.452;8.656;2022-07-10T03:42:15;5.17;;;2.40;;
1765;SDS011;880;52.452;8.656;2022-07-10T03:44:42;4.33;;;1.90;;
1765;SDS011;880;52.452;8.656;2022-07-10T03:47:09;5.40;;;2.70;;
1765;SDS011;880;52.452;8.656;2022-07-10T03:49:36;5.10;;;2.00;;
1765;SDS011;880;52.452;8.656;2022-07-10T03:52:05;10.10;;;2.50;;
1765;SDS011;880;52.452;8.656;2022-07-10T03:54:32;6.43;;;2.50;;
1765;SDS011;880;52.452;8.656;2022-07-10T03:56:59;6.37;;;2.20;;
1765;SDS011;880;52.452;8.656;2022-07-10T03:59:44;7.50;;;2.07;;
1765;SDS011;880;52.452;8.656;2022-07-10T04:02:12;7.70;;;2.70;;
1765;SDS011;880;52.452;8.656;2022-07-10T04:04:39;4.37;;;1.77;;
1765;SDS011;880;52.452;8.656;2022-07-10T04:07:06;5.10;;;1.60;;
1765;SDS011;880;52.452;8.656;2022-07-10T04:09:33;3.70;;;1.80;;
1765;SDS011;880;52.452;8.656;2022-07-10T04:12:00;4.30;;;2.87;;
1765;SDS011;880;52.452;8.656;2022-07-10T04:14:27;5.83;;;2.40;;
1765;SDS011;880;52.452;8.656;2022-07-10T04:16:54;4.93;;;2.60;;
1765;SDS011;880;52.452;8.656;2022-07-10T04:19:21;7.60;;;1.97;;
1765;SDS011;880;52.452;8.656;2022-07-10T04:21:48;7.00;;;2.30;;
1765;SDS011;880;52.452;8.656;2022-07-10T04:24:16;6.13;;;2.40;;
1765;SDS011;880;52.452;8.656;2022-07-10T04:26:43;5.50;;;2.27;;
1765;SDS011;880;52.452;8.656;2022-07-10T04:29:11;6.37;;;2.20;;
1765;SDS011;880;52.452;8.656;2022-07-10T04:31:38;3.10;;;2.07;;
1765;SDS011;880;52.452;8.656;2022-07-10T04:34:05;5.93;;;2.03;;
1765;SDS011;880;52.452;8.656;2022-07-10T04:36:32;4.30;;;2.07;;
1765;SDS011;880;52.452;8.656;2022-07-10T04:38:59;7.33;;;3.40;;
1765;SDS011;880;52.452;8.656;2022-07-10T04:41:26;7.07;;;1.87;;
1765;SDS011;880;52.452;8.656;2022-07-10T04:43:53;8.43;;;2.50;;
1765;SDS011;880;52.452;8.656;2022-07-10T04:46:20;10.43;;;3.50;;
1765;SDS011;880;52.452;8.656;2022-07-10T04:48:48;5.97;;;2.20;;
1765;SDS011;880;52.452;8.656;2022-07-10T04:51:16;4.00;;;2.00;;
1765;SDS011;880;52.452;8.656;2022-07-10T04:53:44;6.07;;;2.67;;
1765;SDS011;880;52.452;8.656;2022-07-10T04:56:11;3.07;;;1.97;;
1765;SDS011;880;52.452;8.656;2022-07-10T04:58:38;6.90;;;1.80;;
1765;SDS011;880;52.452;8.656;2022-07-10T05:01:06;6.50;;;2.47;;
1765;SDS011;880;52.452;8.656;2022-07-10T05:03:33;7.40;;;2.27;;
1765;SDS011;880;52.452;8.656;2022-07-10T05:06:00;3.53;;;2.00;;
1765;SDS011;880;52.452;8.656;2022-07-10T05:08:27;7.47;;;2.47;;
1765;SDS011;880;52.452;8.656;2022-07-10T05:10:55;7.30;;;2.10;;
1765;SDS011;880;52.452;8.656;2022-07-10T05:13:22;5.20;;;1.90;;
1765;SDS011;880;52.452;8.656;2022-07-10T05:15:49;6.27;;;2.00;;
1765;SDS011;880;52.452;8.656;2022-07-10T05:18:16;4.73;;;2.10;;
1765;SDS011;880;52.452;8.656;2022-07-10T05:20:43;3.17;;;1.90;;
1765;SDS011;880;52.452;8.656;2022-07-10T05:23:14;8.80;;;2.07;;
1765;SDS011;880;52.452;8.656;2022-07-10T05:25:42;6.90;;;2.40;;
1765;SDS011;880;52.452;8.656;2022-07-10T05:28:09;5.67;;;2.07;;
1765;SDS011;880;52.452;8.656;2022-07-10T05:30:36;6.43;;;2.10;;
1765;SDS011;880;52.452;8.656;2022-07-10T05:33:03;3.30;;;2.00;;
1765;SDS011;880;52.452;8.656;2022-07-10T05:35:30;6.30;;;2.27;;
1765;SDS011;880;52.452;8.656;2022-07-10T05:37:57;3.70;;;1.83;;
1765;SDS011;880;52.452;8.656;2022-07-10T05:40:24;12.23;;;2.30;;
1765;SDS011;880;52.452;8.656;2022-07-10T05:42:51;6.73;;;3.20;;
1765;SDS011;880;52.452;8.656;2022-07-10T05:45:18;5.93;;;2.27;;
1765;SDS011;880;52.452;8.656;2022-07-10T05:47:45;5.30;;;1.63;;
1765;SDS011;880;52.452;8.656;2022-07-10T05:50:13;7.87;;;1.80;;
1765;SDS011;880;52.452;8.656;2022-07-10T05:52:40;3.93;;;1.90;;
1765;SDS011;880;52.452;8.656;2022-07-10T05:55:10;5.13;;;2.30;;
1765;SDS011;880;52.452;8.656;2022-07-10T05:57:37;5.90;;;1.67;;
1765;SDS011;880;52.452;8.656;2022-07-10T06:00:04;10.70;;;2.00;;
1765;SDS011;880;52.452;8.656;2022-07-10T06:02:39;9.60;;;1.90;;
1765;SDS011;880;52.452;8.656;2022-07-10T06:05:06;5.10;;;2.00;;
1765;SDS011;880;52.452;8.656;2022-07-10T06:07:34;9.87;;;1.90;;
1765;SDS011;880;52.452;8.656;2022-07-10T06:10:04;5.17;;;2.37;;
1765;SDS011;880;52.452;8.656;2022-07-10T06:12:32;3.50;;;1.80;;
1765;SDS011;880;52.452;8.656;2022-07-10T06:14:59;5.10;;;2.07;;
1765;SDS011;880;52.452;8.656;2022-07-10T06:17:26;3.37;;;1.87;;
1765;SDS011;880;52.452;8.656;2022-07-10T06:19:53;4.67;;;1.57;;
1765;SDS011;880;52.452;8.656;2022-07-10T06:22:20;5.70;;;1.97;;
1765;SDS011;880;52.452;8.656;2022-07-10T06:24:57;6.23;;;1.63;;
1765;SDS011;880;52.452;8.656;2022-07-10T06:27:26;3.10;;;1.40;;
1765;SDS011;880;52.452;8.656;2022-07-10T06:29:53;5.93;;;2.20;;
1765;SDS011;880;52.452;8.656;2022-07-10T06:32:21;8.07;;;1.93;;
1765;SDS011;880;52.452;8.656;2022-07-10T06:34:50;3.00;;;1.57;;
1765;SDS011;880;52.452;8.656;2022-07-10T06:37:18;5.20;;;2.17;;
1765;SDS011;880;52.452;8.656;2022-07-10T06:39:46;2.93;;;1.20;;
1765;SDS011;880;52.452;8.656;2022-07-10T06:42:14;5.33;;;2.00;;
1765;SDS011;880;52.452;8.656;2022-07-10T06:44:46;4.30;;;2.70;;
1765;SDS011;880;52.452;8.656;2022-07-10T06:47:13;6.70;;;1.90;;
1765;SDS011;880;52.452;8.656;2022-07-10T06:50:05;2.80;;;1.80;;
1765;SDS011;880;52.452;8.656;2022-07-10T06:52:35;3.53;;;1.40;;
1765;SDS011;880;52.452;8.656;2022-07-10T06:55:03;4.10;;;1.90;;
1765;SDS011;880;52.452;8.656;2022-07-10T06:57:31;3.63;;;1.77;;
1765;SDS011;880;52.452;8.656;2022-07-10T06:59:58;8.00;;;2.03;;
1765;SDS011;880;52.452;8.656;2022-07-10T07:02:25;3.77;;;1.80;;
1765;SDS011;880;52.452;8.656;2022-07-10T07:04:52;5.00;;;1.70;;
1765;SDS011;880;52.452;8.656;2022-07-10T07:07:19;5.03;;;2.20;;
1765;SDS011;880;52.452;8.656;2022-07-10T07:09:51;5.10;;;2.83;;
1765;SDS011;880;52.452;8.656;2022-07-10T07:12:18;3.23;;;2.43;;
1765;SDS011;880;52.452;8.656;2022-07-10T07:14:46;8.03;;;2.00;;
1765;SDS011;880;52.452;8.656;2022-07-10T07:17:13;5.50;;;1.90;;
1765;SDS011;880;52.452;8.656;2022-07-10T07:19:48;6.87;;;2.17;;
1765;SDS011;880;52.452;8.656;2022-07-10T07:22:34;7.77;;;1.97;;
1765;SDS011;880;52.452;8.656;2022-07-10T07:25:21;9.33;;;3.57;;
1765;SDS011;880;52.452;8.656;2022-07-10T07:27:48;4.63;;;1.90;;
1765;SDS011;880;52.452;8.656;2022-07-10T07:30:15;12.53;;;2.83;;
1765;SDS011;880;52.452;8.656;2022-07-10T07:32:43;8.57;;;2.07;;
1765;SDS011;880;52.452;8.656;2022-07-10T07:35:12;5.60;;;2.03;;
1765;SDS011;880;52.452;8.656;2022-07-10T07:37:41;6.30;;;1.57;;
1765;SDS011;880;52.452;8.656;2022-07-10T07:40:15;8.47;;;2.77;;
1765;SDS011;880;52.452;8.656;2022-07-10T07:42:52;5.67;;;2.67;;
1765;SDS011;880;52.452;8.656;2022-07-10T07:45:20;8.63;;;2.00;;
1765;SDS011;880;52.452;8.656;2022-07-10T07:47:50;10.33;;;2.53;;
1765;SDS011;880;52.452;8.656;2022-07-10T07:50:23;9.50;;;3.00;;
1765;SDS011;880;52.452;8.656;2022-07-10T07:52:54;11.13;;;3.47;;
1765;SDS011;880;52.452;8.656;2022-07-10T07:55:22;3.97;;;2.07;;
1765;SDS011;880;52.452;8.656;2022-07-10T07:57:52;4.07;;;1.70;;
1765;SDS011;880;52.452;8.656;2022-07-10T08:00:22;4.90;;;2.57;;
1765;SDS011;880;52.452;8.656;2022-07-10T08:02:51;6.63;;;2.13;;
1765;SDS011;880;52.452;8.656;2022-07-10T08:05:20;9.57;;;2.10;;
1765;SDS011;880;52.452;8.656;2022-07-10T08:07:51;6.83;;;2.43;;
1765;SDS011;880;52.452;8.656;2022-07-10T08:10:21;4.37;;;2.00;;
1765;SDS011;880;52.452;8.656;2022-07-10T08:12:50;8.80;;;2.10;;
1765;SDS011;880;52.452;8.656;2022-07-10T08:15:20;6.80;;;2.10;;
1765;SDS011;880;52.452;8.656;2022-07-10T08:17:55;5.60;;;1.80;;
1765;SDS011;880;52.452;8.656;2022-07-10T08:20:25;10.10;;;2.73;;
1765;SDS011;880;52.452;8.656;2022-07-10T08:22:52;3.53;;;1.70;;
1765;SDS011;880;52.452;8.656;2022-07-10T08:25:26;6.40;;;2.07;;
1765;SDS011;880;52.452;8.656;2022-07-10T08:28:00;3.93;;;1.77;;
1765;SDS011;880;52.452;8.656;2022-07-10T08:30:32;7.43;;;1.97;;
1765;SDS011;880;52.452;8.656;2022-07-10T08:33:00;3.63;;;1.83;;
1765;SDS011;880;52.452;8.656;2022-07-10T08:35:27;5.88;;;1.65;;
1765;SDS011;880;52.452;8.656;2022-07-10T08:37:54;4.85;;;1.95;;
1765;SDS011;880;52.452;8.656;2022-07-10T08:40:21;3.80;;;1.90;;
1765;SDS011;880;52.452;8.656;2022-07-10T08:42:49;4.33;;;1.60;;
1765;SDS011;880;52.452;8.656;2022-07-10T08:45:16;3.87;;;1.70;;
1765;SDS011;880;52.452;8.656;2022-07-10T08:47:43;2.17;;;1.37;;
1765;SDS011;880;52.452;8.656;2022-07-10T08:50:17;2.10;;;1.50;;
1765;SDS011;880;52.452;8.656;2022-07-10T08:52:59;5.13;;;2.10;;
1765;SDS011;880;52.452;8.656;2022-07-10T08:55:36;4.70;;;1.87;;
1765;SDS011;880;52.452;8.656;2022-07-10T08:58:04;4.97;;;1.43;;
1765;SDS011;880;52.452;8.656;2022-07-10T09:00:34;3.80;;;1.70;;
1765;SDS011;880;52.452;8.656;2022-07-10T09:03:01;4.78;;;1.70;;
1765;SDS011;880;52.452;8.656;2022-07-10T09:05:29;5.60;;;2.00;;
1765;SDS011;880;52.452;8.656;2022-07-10T09:07:56;7.50;;;2.30;;
1765;SDS011;880;52.452;8.656;2022-07-10T09:10:24;5.50;;;2.10;;
1765;SDS011;880;52.452;8.656;2022-07-10T09:12:53;4.90;;;1.43;;
1765;SDS011;880;52.452;8.656;2022-07-10T09:15:31;3.60;;;1.90;;
1765;SDS011;880;52.452;8.656;2022-07-10T09:18:00;3.50;;;1.80;;
1765;SDS011;880;52.452;8.656;2022-07-10T09:20:38;6.53;;;1.90;;
1765;SDS011;880;52.452;8.656;2022-07-10T09:25:45;3.13;;;1.60;;
1765;SDS011;880;52.452;8.656;2022-07-10T09:28:17;4.63;;;2.20;;
1765;SDS011;880;52.452;8.656;2022-07-10T09:30:47;5.83;;;1.93;;
1765;SDS011;880;52.452;8.656;2022-07-10T09:33:19;6.63;;;1.80;;
1765;SDS011;880;52.452;8.656;2022-07-10T09:41:27;5.47;;;1.83;;
1765;SDS011;880;52.452;8.656;2022-07-10T09:49:10;3.03;;;1.53;;
1765;SDS011;880;52.452;8.656;2022-07-10T09:51:43;5.70;;;1.70;;
1765;SDS011;880;52.452;8.656;2022-07-10T09:54:15;5.70;;;1.60;;
1765;SDS011;880;52.452;8.656;2022-07-10T09:56:45;2.20;;;1.30;;
1765;SDS011;880;52.452;8.656;2022-07-10T09:59:15;8.80;;;1.90;;
1765;SDS011;880;52.452;8.656;2022-07-10T10:01:44;6.80;;;1.83;;
1765;SDS011;880;52.452;8.656;2022-07-10T10:04:14;4.27;;;2.17;;
1765;SDS011;880;52.452;8.656;2022-07-10T10:06:47;4.40;;;1.90;;
1765;SDS011;880;52.452;8.656;2022-07-10T10:09:22;5.80;;;2.03;;
1765;SDS011;880;52.452;8.656;2022-07-10T10:12:02;1.93;;;1.80;;
1765;SDS011;880;52.452;8.656;2022-07-10T10:14:34;7.03;;;3.23;;
1765;SDS011;880;52.452;8.656;2022-07-10T10:17:02;6.00;;;2.37;;
1765;SDS011;880;52.452;8.656;2022-07-10T10:19:31;10.23;;;2.23;;
1765;SDS011;880;52.452;8.656;2022-07-10T10:22:18;5.93;;;1.97;;
1765;SDS011;880;52.452;8.656;2022-07-10T10:24:46;5.40;;;2.07;;
1765;SDS011;880;52.452;8.656;2022-07-10T10:27:14;6.20;;;2.13;;
1765;SDS011;880;52.452;8.656;2022-07-10T10:29:42;1.53;;;1.43;;
1765;SDS011;880;52.452;8.656;2022-07-10T10:32:10;6.07;;;1.90;;
1765;SDS011;880;52.452;8.656;2022-07-10T10:34:41;4.90;;;1.80;;
1765;SDS011;880;52.452;8.656;2022-07-10T10:40:09;5.10;;;1.47;;
1765;SDS011;880;52.452;8.656;2022-07-10T10:42:43;4.53;;;1.63;;
1765;SDS011;880;52.452;8.656;2022-07-10T10:50:52;1.73;;;1.20;;
1765;SDS011;880;52.452;8.656;2022-07-10T10:53:20;2.63;;;1.30;;
1765;SDS011;880;52.452;8.656;2022-07-10T10:58:38;3.70;;;2.07;;
1765;SDS011;880;52.452;8.656;2022-07-10T11:01:23;3.03;;;1.73;;
1765;SDS011;880;52.452;8.656;2022-07-10T11:04:36;3.53;;;1.33;;
1765;SDS011;880;52.452;8.656;2022-07-10T11:06:48;4.67;;;1.60;;
1765;SDS011;880;52.452;8.656;2022-07-10T11:09:24;3.23;;;1.90;;
1765;SDS011;880;52.452;8.656;2022-07-10T11:12:02;2.40;;;1.20;;
1765;SDS011;880;52.452;8.656;2022-07-10T11:14:37;3.13;;;1.80;;
1765;SDS011;880;52.452;8.656;2022-07-10T11:17:08;3.17;;;1.50;;
1765;SDS011;880;52.452;8.656;2022-07-10T11:19:36;2.10;;;1.40;;
1765;SDS011;880;52.452;8.656;2022-07-10T11:24:45;6.30;;;1.60;;
1765;SDS011;880;52.452;8.656;2022-07-10T11:27:49;1.50;;;1.40;;
1765;SDS011;880;52.452;8.656;2022-07-10T11:30:46;2.63;;;1.67;;
1765;SDS011;880;52.452;8.656;2022-07-10T11:33:20;2.30;;;1.57;;
1765;SDS011;880;52.452;8.656;2022-07-10T11:35:49;3.00;;;1.80;;
1765;SDS011;880;52.452;8.656;2022-07-10T11:38:22;1.97;;;1.47;;
1765;SDS011;880;52.452;8.656;2022-07-10T11:40:51;2.10;;;1.37;;
1765;SDS011;880;52.452;8.656;2022-07-10T11:43:22;1.40;;;1.20;;
1765;SDS011;880;52.452;8.656;2022-07-10T11:45:52;3.10;;;1.30;;
1765;SDS011;880;52.452;8.656;2022-07-10T11:48:27;3.23;;;1.30;;
1765;SDS011;880;52.452;8.656;2022-07-10T11:50:54;5.37;;;1.60;;
1765;SDS011;880;52.452;8.656;2022-07-10T11:53:24;3.37;;;1.53;;
1765;SDS011;880;52.452;8.656;2022-07-10T11:55:52;3.80;;;1.30;;
1765;SDS011;880;52.452;8.656;2022-07-10T11:58:20;2.27;;;1.13;;
1765;SDS011;880;52.452;8.656;2022-07-10T12:01:01;2.03;;;1.10;;
1765;SDS011;880;52.452;8.656;2022-07-10T12:03:33;3.63;;;1.40;;
1765;SDS011;880;52.452;8.656;2022-07-10T12:06:01;1.67;;;1.10;;
1765;SDS011;880;52.452;8.656;2022-07-10T12:08:29;1.90;;;1.10;;
1765;SDS011;880;52.452;8.656;2022-07-10T12:11:12;3.23;;;1.40;;
1765;SDS011;880;52.452;8.656;2022-07-10T12:13:44;2.23;;;1.27;;
1765;SDS011;880;52.452;8.656;2022-07-10T12:16:14;2.90;;;1.13;;
1765;SDS011;880;52.452;8.656;2022-07-10T12:18:42;2.30;;;1.10;;
1765;SDS011;880;52.452;8.656;2022-07-10T12:21:11;3.57;;;1.20;;
1765;SDS011;880;52.452;8.656;2022-07-10T12:23:39;1.27;;;1.10;;
1765;SDS011;880;52.452;8.656;2022-07-10T12:26:09;2.53;;;1.77;;
1765;SDS011;880;52.452;8.656;2022-07-10T12:28:53;3.27;;;1.20;;
1765;SDS011;880;52.452;8.656;2022-07-10T12:31:23;2.63;;;1.60;;
1765;SDS011;880;52.452;8.656;2022-07-10T12:34:01;4.43;;;2.13;;
1765;SDS011;880;52.452;8.656;2022-07-10T12:36:40;6.63;;;1.43;;
1765;SDS011;880;52.452;8.656;2022-07-10T12:39:24;2.40;;;1.30;;
1765;SDS011;880;52.452;8.656;2022-07-10T12:41:55;3.60;;;1.30;;
1765;SDS011;880;52.452;8.656;2022-07-10T12:47:07;2.20;;;1.00;;
1765;SDS011;880;52.452;8.656;2022-07-10T12:49:55;3.70;;;1.30;;
1765;SDS011;880;52.452;8.656;2022-07-10T12:52:30;3.03;;;1.20;;
1765;SDS011;880;52.452;8.656;2022-07-10T12:55:12;3.13;;;1.30;;
1765;SDS011;880;52.452;8.656;2022-07-10T13:00:22;1.90;;;1.50;;
1765;SDS011;880;52.452;8.656;2022-07-10T13:05:33;3.07;;;1.37;;
1765;SDS011;880;52.452;8.656;2022-07-10T13:10:44;2.17;;;1.13;;
1765;SDS011;880;52.452;8.656;2022-07-10T13:13:15;5.00;;;1.60;;
1765;SDS011;880;52.452;8.656;2022-07-10T13:15:43;3.90;;;1.80;;
1765;SDS011;880;52.452;8.656;2022-07-10T13:18:13;5.47;;;1.47;;
1765;SDS011;880;52.452;8.656;2022-07-10T13:20:44;1.60;;;1.40;;
1765;SDS011;880;52.452;8.656;2022-07-10T13:23:12;6.30;;;1.60;;
1765;SDS011;880;52.452;8.656;2022-07-10T13:25:39;3.10;;;1.13;;
1765;SDS011;880;52.452;8.656;2022-07-10T13:28:08;6.40;;;1.50;;
1765;SDS011;880;52.452;8.656;2022-07-10T13:30:37;1.40;;;1.30;;
1765;SDS011;880;52.452;8.656;2022-07-10T13:33:05;2.40;;;1.40;;
1765;SDS011;880;52.452;8.656;2022-07-10T13:35:33;4.60;;;1.20;;
1765;SDS011;880;52.452;8.656;2022-07-10T13:38:01;1.13;;;1.00;;
1765;SDS011;880;52.452;8.656;2022-07-10T13:40:30;3.30;;;1.30;;
1765;SDS011;880;52.452;8.656;2022-07-10T13:42:59;4.50;;;1.30;;
1765;SDS011;880;52.452;8.656;2022-07-10T13:45:27;3.00;;;1.50;;
1765;SDS011;880;52.452;8.656;2022-07-10T13:48:03;1.83;;;1.23;;
1765;SDS011;880;52.452;8.656;2022-07-10T13:50:31;1.63;;;1.20;;
1765;SDS011;880;52.452;8.656;2022-07-10T13:52:58;1.40;;;1.20;;
1765;SDS011;880;52.452;8.656;2022-07-10T13:55:26;2.00;;;1.63;;
1765;SDS011;880;52.452;8.656;2022-07-10T13:57:53;3.20;;;1.30;;
1765;SDS011;880;52.452;8.656;2022-07-10T14:00:20;1.60;;;1.47;;
1765;SDS011;880;52.452;8.656;2022-07-10T14:02:47;1.97;;;1.20;;
1765;SDS011;880;52.452;8.656;2022-07-10T14:05:14;2.97;;;1.33;;
1765;SDS011;880;52.452;8.656;2022-07-10T14:07:41;4.33;;;1.67;;
1765;SDS011;880;52.452;8.656;2022-07-10T14:10:08;1.43;;;1.33;;
1765;SDS011;880;52.452;8.656;2022-07-10T14:12:36;1.83;;;1.40;;
1765;SDS011;880;52.452;8.656;2022-07-10T14:15:03;4.70;;;1.80;;
1765;SDS011;880;52.452;8.656;2022-07-10T14:17:31;6.10;;;1.93;;
1765;SDS011;880;52.452;8.656;2022-07-10T14:19:58;2.27;;;1.00;;
1765;SDS011;880;52.452;8.656;2022-07-10T14:22:25;4.90;;;1.10;;
1765;SDS011;880;52.452;8.656;2022-07-10T14:24:52;1.87;;;1.00;;
1765;SDS011;880;52.452;8.656;2022-07-10T14:27:21;1.67;;;0.90;;
1765;SDS011;880;52.452;8.656;2022-07-10T14:29:50;2.00;;;0.87;;
1765;SDS011;880;52.452;8.656;2022-07-10T14:32:19;1.10;;;1.00;;
1765;SDS011;880;52.452;8.656;2022-07-10T14:34:46;1.37;;;0.97;;
1765;SDS011;880;52.452;8.656;2022-07-10T14:37:12;1.43;;;0.87;;
1765;SDS011;880;52.452;8.656;2022-07-10T14:39:39;1.13;;;0.73;;
1765;SDS011;880;52.452;8.656;2022-07-10T14:42:07;3.10;;;0.97;;
1765;SDS011;880;52.452;8.656;2022-07-10T14:44:35;2.70;;;0.97;;
1765;SDS011;880;52.452;8.656;2022-07-10T14:47:03;2.83;;;1.00;;
1765;SDS011;880;52.452;8.656;2022-07-10T14:49:30;2.43;;;1.20;;
1765;SDS011;880;52.452;8.656;2022-07-10T14:51:57;1.23;;;0.90;;
1765;SDS011;880;52.452;8.656;2022-07-10T14:54:24;2.17;;;1.20;;
1765;SDS011;880;52.452;8.656;2022-07-10T14:56:52;3.27;;;1.40;;
1765;SDS011;880;52.452;8.656;2022-07-10T14:59:19;1.60;;;0.90;;
1765;SDS011;880;52.452;8.656;2022-07-10T15:01:46;3.27;;;1.10;;
1765;SDS011;880;52.452;8.656;2022-07-10T15:04:13;2.03;;;1.50;;
1765;SDS011;880;52.452;8.656;2022-07-10T15:06:40;1.20;;;1.10;;
1765;SDS011;880;52.452;8.656;2022-07-10T15:09:07;1.70;;;1.03;;
1765;SDS011;880;52.452;8.656;2022-07-10T15:11:34;2.60;;;1.10;;
1765;SDS011;880;52.452;8.656;2022-07-10T15:14:02;3.23;;;0.87;;
1765;SDS011;880;52.452;8.656;2022-07-10T15:16:31;2.13;;;1.23;;
1765;SDS011;880;52.452;8.656;2022-07-10T15:18:58;2.10;;;0.87;;
1765;SDS011;880;52.452;8.656;2022-07-10T15:21:25;1.20;;;0.97;;
1765;SDS011;880;52.452;8.656;2022-07-10T15:23:54;3.67;;;1.00;;
1765;SDS011;880;52.452;8.656;2022-07-10T15:26:21;1.03;;;0.93;;
1765;SDS011;880;52.452;8.656;2022-07-10T15:28:48;1.97;;;1.00;;
1765;SDS011;880;52.452;8.656;2022-07-10T15:31:15;4.13;;;1.00;;
1765;SDS011;880;52.452;8.656;2022-07-10T15:33:42;1.00;;;1.00;;
1765;SDS011;880;52.452;8.656;2022-07-10T15:36:12;1.20;;;0.90;;
1765;SDS011;880;52.452;8.656;2022-07-10T15:38:40;2.03;;;1.40;;
1765;SDS011;880;52.452;8.656;2022-07-10T15:41:07;1.90;;;0.93;;
1765;SDS011;880;52.452;8.656;2022-07-10T15:43:35;1.63;;;0.93;;
1765;SDS011;880;52.452;8.656;2022-07-10T15:46:02;2.23;;;0.70;;
1765;SDS011;880;52.452;8.656;2022-07-10T15:48:29;0.50;;;0.50;;
1765;SDS011;880;52.452;8.656;2022-07-10T15:50:56;2.10;;;0.83;;
1765;SDS011;880;52.452;8.656;2022-07-10T15:53:24;2.60;;;0.97;;
1765;SDS011;880;52.452;8.656;2022-07-10T15:55:51;4.10;;;1.27;;
1765;SDS011;880;52.452;8.656;2022-07-10T15:58:18;1.27;;;0.70;;
1765;SDS011;880;52.452;8.656;2022-07-10T16:00:45;1.00;;;0.80;;
1765;SDS011;880;52.452;8.656;2022-07-10T16:03:12;1.33;;;0.50;;
1765;SDS011;880;52.452;8.656;2022-07-10T16:05:39;0.93;;;0.70;;
1765;SDS011;880;52.452;8.656;2022-07-10T16:08:06;0.93;;;0.60;;
1765;SDS011;880;52.452;8.656;2022-07-10T16:10:33;2.33;;;0.70;;
1765;SDS011;880;52.452;8.656;2022-07-10T16:13:00;1.07;;;0.70;;
1765;SDS011;880;52.452;8.656;2022-07-10T16:15:28;0.90;;;0.80;;
1765;SDS011;880;52.452;8.656;2022-07-10T16:17:55;1.17;;;0.80;;
1765;SDS011;880;52.452;8.656;2022-07-10T16:20:22;3.23;;;0.73;;
1765;SDS011;880;52.452;8.656;2022-07-10T16:22:50;1.93;;;0.83;;
1765;SDS011;880;52.452;8.656;2022-07-10T16:25:17;2.10;;;0.80;;
1765;SDS011;880;52.452;8.656;2022-07-10T16:28:02;0.60;;;0.60;;